Time;durP1;ratioP1;P1;durP2;ratioP2;P2;SDS_P1;SDS_P2;PMS_P1;PMS_P2;Temp;Humidity;BMP_temperature;BMP_pressure;BME280_temperature;BME280_humidity;BME280_pressure;Samples;Min_cycle;Max_cycle;Signal;HPM_P1;HPM_P2
2021/07/14 00:00:59;;;;;;;9.18;7.65;;;768.20;1152.00;;;;;;5095649;28;20034;-59
2021/07/14 00:03:28;;;;;;;12.07;8.10;;;768.20;1152.00;;;;;;5095329;28;20066;-59
2021/07/14 00:05:54;;;;;;;15.95;8.07;;;768.20;1152.00;;;;;;5095157;28;20036;-58
2021/07/14 00:08:20;;;;;;;10.05;8.38;;;768.10;1126.40;;;;;;5095212;28;20020;-59
2021/07/14 00:10:46;;;;;;;15.82;10.00;;;768.10;1152.00;;;;;;5094944;28;20074;-59
2021/07/14 00:23:29;;;;;;;9.23;7.00;;;768.00;1152.00;;;;;;5095324;28;20079;-56
2021/07/14 00:25:55;;;;;;;10.48;7.40;;;768.00;1152.00;;;;;;5095046;28;20064;-51
2021/07/14 00:28:21;;;;;;;12.95;7.15;;;743.30;1152.00;;;;;;5095120;28;20425;-59
2021/07/14 00:30:54;;;;;;;9.57;7.55;;;743.30;1152.00;;;;;;5094836;28;20024;-59
2021/07/14 00:33:21;;;;;;;16.80;8.70;;;768.00;1152.00;;;;;;5094771;28;20034;-60
2021/07/14 00:35:46;;;;;;;14.50;8.90;;;743.30;1126.40;;;;;;5094774;28;20028;-51
2021/07/14 00:38:13;;;;;;;12.18;8.93;;;743.30;1152.00;;;;;;5094685;28;20023;-51
2021/07/14 00:40:39;;;;;;;12.25;8.57;;;743.20;1152.00;;;;;;5094911;28;20024;-59
2021/07/14 00:43:05;;;;;;;15.80;8.18;;;743.20;1152.00;;;;;;5094864;28;20028;-51
2021/07/14 00:45:31;;;;;;;13.77;8.10;;;743.20;1152.00;;;;;;5094434;28;20043;-59
2021/07/14 00:48:00;;;;;;;11.40;8.05;;;743.20;1152.00;;;;;;5094436;28;20111;-59
2021/07/14 00:50:27;;;;;;;11.88;7.80;;;743.20;1152.00;;;;;;5094444;28;20028;-59
2021/07/14 00:52:53;;;;;;;11.77;7.43;;;743.20;1152.00;;;;;;5094371;28;20035;-52
2021/07/14 00:55:19;;;;;;;9.85;7.68;;;743.20;1152.00;;;;;;5094305;28;20032;-59
2021/07/14 00:57:45;;;;;;;11.77;7.55;;;743.20;1152.00;;;;;;5094284;28;20024;-59
2021/07/14 01:00:12;;;;;;;11.70;8.07;;;743.20;1152.00;;;;;;5094253;28;20476;-51
2021/07/14 01:02:39;;;;;;;11.15;7.90;;;743.20;1152.00;;;;;;5094191;28;20028;-51
2021/07/14 01:05:24;;;;;;;10.75;8.50;;;743.10;1152.00;;;;;;5094068;28;20035;-59
2021/07/14 01:07:56;;;;;;;11.55;7.65;;;743.10;1152.00;;;;;;5094140;28;20024;-60
2021/07/14 01:10:29;;;;;;;23.70;7.95;;;743.10;1152.00;;;;;;5094121;28;20103;-59
2021/07/14 01:13:10;;;;;;;13.32;7.18;;;743.10;1152.00;;;;;;5094242;28;20020;-51
2021/07/14 01:16:00;;;;;;;8.07;7.13;;;743.10;1152.00;;;;;;5094317;28;20020;-59
2021/07/14 01:18:50;;;;;;;14.18;7.93;;;743.10;1152.00;;;;;;5093986;28;20024;-60
2021/07/14 01:21:28;;;;;;;10.23;7.25;;;743.00;1152.00;;;;;;5093971;28;20361;-51
2021/07/14 01:24:09;;;;;;;9.85;7.40;;;743.00;1152.00;;;;;;5092806;28;20051;-54
2021/07/14 01:26:53;;;;;;;13.50;7.53;;;743.00;1152.00;;;;;;5094068;28;20040;-59
2021/07/14 01:29:21;;;;;;;15.63;7.65;;;743.00;1152.00;;;;;;5094143;28;20026;-53
2021/07/14 01:31:49;;;;;;;9.75;7.45;;;743.00;1152.00;;;;;;5093770;28;20491;-58
2021/07/14 01:34:16;;;;;;;10.43;7.53;;;743.00;1152.00;;;;;;5093981;28;20024;-58
2021/07/14 01:36:48;;;;;;;10.95;7.82;;;743.00;1152.00;;;;;;5094799;28;20365;-53
2021/07/14 01:39:15;;;;;;;11.77;7.22;;;743.00;1152.00;;;;;;5093959;28;20031;-59
2021/07/14 01:41:45;;;;;;;14.93;7.82;;;742.90;1152.00;;;;;;5093618;28;20492;-59
2021/07/14 01:44:12;;;;;;;11.27;7.32;;;742.90;1177.60;;;;;;5093895;28;20085;-59
2021/07/14 01:46:40;;;;;;;11.95;7.50;;;742.90;1152.00;;;;;;5093498;28;20146;-59
2021/07/14 01:49:13;;;;;;;12.55;6.85;;;742.90;1152.00;;;;;;5093856;28;20043;-51
2021/07/14 01:51:46;;;;;;;10.57;6.90;;;742.90;1152.00;;;;;;5093849;28;20028;-59
2021/07/14 01:54:15;;;;;;;16.20;8.60;;;743.00;1152.00;;;;;;5093818;28;20062;-58
2021/07/14 01:56:42;;;;;;;12.25;7.03;;;742.90;1152.00;;;;;;5093817;28;20028;-54
2021/07/14 01:59:11;;;;;;;10.55;6.60;;;742.90;1152.00;;;;;;5093447;28;20053;-59
2021/07/14 02:01:40;;;;;;;8.63;7.10;;;742.90;1152.00;;;;;;5093442;28;20107;-59
2021/07/14 02:06:57;;;;;;;9.93;7.30;;;742.90;1152.00;;;;;;5093712;28;20043;-52
2021/07/14 02:09:23;;;;;;;10.70;6.38;;;742.90;1152.00;;;;;;5093390;28;20107;-52
2021/07/14 02:11:52;;;;;;;15.43;7.20;;;742.90;1152.00;;;;;;5093676;28;20480;-60
2021/07/14 02:14:23;;;;;;;12.38;6.65;;;742.90;1126.40;;;;;;5093653;28;20020;-59
2021/07/14 02:16:50;;;;;;;13.95;6.95;;;742.90;1126.40;;;;;;5093281;28;20024;-60
2021/07/14 02:19:18;;;;;;;16.05;7.60;;;742.90;1152.00;;;;;;5093573;28;20028;-59
2021/07/14 02:21:44;;;;;;;12.07;7.18;;;742.90;1152.00;;;;;;5093315;28;20085;-58
2021/07/14 02:24:12;;;;;;;16.02;7.53;;;742.90;1152.00;;;;;;5093182;28;20048;-60
2021/07/14 02:26:40;;;;;;;17.98;7.03;;;742.90;1126.40;;;;;;5093148;28;20507;-52
2021/07/14 02:29:06;;;;;;;12.88;6.82;;;743.00;1126.40;;;;;;5093450;28;20039;-51
2021/07/14 02:31:33;;;;;;;10.00;6.18;;;743.00;1126.40;;;;;;5093161;28;20112;-55
2021/07/14 02:34:00;;;;;;;16.90;6.75;;;743.00;1126.40;;;;;;5093221;28;20476;-51
2021/07/14 02:36:31;;;;;;;10.30;6.65;;;743.00;1126.40;;;;;;5097000;28;20035;-51
2021/07/14 02:39:03;;;;;;;12.90;6.90;;;743.00;1126.40;;;;;;5097331;28;20485;-52
2021/07/14 02:41:41;;;;;;;14.35;6.93;;;743.00;1126.40;;;;;;5096983;28;20476;-51
2021/07/14 02:44:10;;;;;;;12.27;6.70;;;743.00;1100.80;;;;;;5096874;28;20031;-59
2021/07/14 02:46:41;;;;;;;9.10;6.82;;;742.90;1126.40;;;;;;5096720;28;20404;-52
2021/07/14 02:49:10;;;;;;;9.02;6.85;;;742.90;1126.40;;;;;;5097142;28;20105;-52
2021/07/14 02:51:38;;;;;;;9.45;6.35;;;743.00;1126.40;;;;;;5097042;28;20101;-60
2021/07/14 02:54:19;;;;;;;9.07;6.45;;;742.90;1126.40;;;;;;5096661;28;20107;-51
2021/07/14 02:56:48;;;;;;;15.10;7.50;;;743.00;1126.40;;;;;;5096990;28;20437;-60
2021/07/14 02:59:15;;;;;;;20.65;6.90;;;743.00;1126.40;;;;;;5096872;28;20024;-52
2021/07/14 03:01:43;;;;;;;15.10;7.15;;;743.00;1126.40;;;;;;5096549;28;20121;-60
2021/07/14 03:04:10;;;;;;;15.35;7.28;;;743.00;1126.40;;;;;;5096472;28;20430;-51
2021/07/14 03:06:38;;;;;;;10.23;6.47;;;743.00;1152.00;;;;;;5096703;28;20127;-51
2021/07/14 03:09:06;;;;;;;8.27;6.43;;;743.00;1126.40;;;;;;5096401;28;20027;-60
2021/07/14 03:11:43;;;;;;;13.43;6.80;;;743.00;1152.00;;;;;;5096374;28;20444;-60
2021/07/14 03:14:14;;;;;;;16.23;6.85;;;742.90;1126.40;;;;;;5096328;28;20028;-51
2021/07/14 03:16:42;;;;;;;16.25;7.00;;;742.80;1126.40;;;;;;5096268;28;20021;-51
2021/07/14 03:19:10;;;;;;;9.80;7.10;;;742.80;1126.40;;;;;;5096540;28;20032;-60
2021/07/14 03:21:37;;;;;;;16.88;6.93;;;742.80;1126.40;;;;;;5096511;28;20020;-59
2021/07/14 03:24:06;;;;;;;9.73;7.00;;;742.80;1126.40;;;;;;5095893;28;20080;-51
2021/07/14 03:26:33;;;;;;;8.82;6.22;;;742.80;1126.40;;;;;;5096272;28;20048;-57
2021/07/14 03:29:01;;;;;;;12.32;6.53;;;742.80;1126.40;;;;;;5095988;28;20025;-51
2021/07/14 03:31:29;;;;;;;13.88;6.63;;;742.80;1126.40;;;;;;5096830;28;20055;-51
2021/07/14 03:33:55;;;;;;;13.70;6.80;;;742.80;1126.40;;;;;;5095935;28;20476;-52
2021/07/14 03:36:22;;;;;;;7.90;6.25;;;742.80;1126.40;;;;;;5096224;28;20053;-59
2021/07/14 03:38:48;;;;;;;14.90;6.80;;;742.80;1126.40;;;;;;5095832;28;20031;-59
2021/07/14 03:41:15;;;;;;;13.38;6.95;;;742.80;1126.40;;;;;;5095767;28;20024;-51
2021/07/14 03:43:41;;;;;;;11.75;6.60;;;742.80;1126.40;;;;;;5096035;28;20103;-59
2021/07/14 03:46:09;;;;;;;12.73;6.38;;;742.80;1126.40;;;;;;5095118;28;20447;-59
2021/07/14 03:48:36;;;;;;;12.25;6.50;;;742.80;1126.40;;;;;;5095657;28;20024;-51
2021/07/14 03:51:03;;;;;;;8.05;6.32;;;742.70;1126.40;;;;;;5095617;28;20024;-60
2021/07/14 03:53:29;;;;;;;14.27;6.10;;;742.70;1126.40;;;;;;5095565;28;20082;-51
2021/07/14 03:55:55;;;;;;;13.57;7.00;;;742.80;1152.00;;;;;;5095817;28;20028;-51
2021/07/14 03:58:24;;;;;;;10.80;6.47;;;742.80;1152.00;;;;;;5095726;28;20024;-59
2021/07/14 04:00:50;;;;;;;13.75;6.97;;;742.70;1126.40;;;;;;5095760;28;20032;-59
2021/07/14 04:03:22;;;;;;;9.38;6.75;;;742.70;1126.40;;;;;;5095359;28;20473;-51
2021/07/14 04:05:53;;;;;;;12.98;6.95;;;742.80;1152.00;;;;;;5095559;28;20081;-59
2021/07/14 04:08:24;;;;;;;14.35;6.35;;;742.80;1152.00;;;;;;5095342;28;20036;-52
2021/07/14 04:10:50;;;;;;;14.00;7.07;;;742.80;1152.00;;;;;;5095201;28;20070;-60
2021/07/14 04:13:16;;;;;;;13.02;6.45;;;742.80;1126.40;;;;;;5095469;28;20377;-52
2021/07/14 04:15:42;;;;;;;15.02;6.43;;;742.80;1126.40;;;;;;5095121;28;20031;-59
2021/07/14 04:18:11;;;;;;;9.40;6.18;;;742.80;1152.00;;;;;;5095357;28;20026;-59
2021/07/14 04:20:37;;;;;;;9.70;6.00;;;742.80;1152.00;;;;;;5095090;28;20028;-59
2021/07/14 04:23:03;;;;;;;14.15;6.18;;;742.90;1152.00;;;;;;5095213;28;20030;-53
2021/07/14 04:25:29;;;;;;;13.98;7.05;;;742.90;1152.00;;;;;;5094696;28;20090;-59
2021/07/14 04:27:55;;;;;;;10.75;6.25;;;742.90;1126.40;;;;;;5095165;28;20024;-52
2021/07/14 04:30:21;;;;;;;11.48;6.10;;;742.90;1126.40;;;;;;5095160;28;20098;-51
2021/07/14 04:32:47;;;;;;;9.68;5.90;;;742.90;1126.40;;;;;;5094835;28;20495;-60
2021/07/14 04:35:13;;;;;;;8.68;7.00;;;743.00;1126.40;;;;;;5094690;28;20020;-51
2021/07/14 04:37:39;;;;;;;13.18;6.60;;;743.00;1126.40;;;;;;5095047;28;20039;-60
2021/07/14 04:40:07;;;;;;;12.40;6.55;;;743.00;1126.40;;;;;;5094990;28;20469;-57
2021/07/14 04:42:33;;;;;;;13.35;6.80;;;743.00;1126.40;;;;;;5093373;28;20051;-52
2021/07/14 04:44:59;;;;;;;8.80;6.30;;;743.00;1126.40;;;;;;5094759;28;20097;-51
2021/07/14 04:47:24;;;;;;;9.85;6.32;;;743.00;1152.00;;;;;;5094833;28;20052;-51
2021/07/14 04:49:50;;;;;;;11.77;6.22;;;743.10;1152.00;;;;;;5094411;28;20557;-60
2021/07/14 04:52:16;;;;;;;10.65;6.80;;;743.10;1126.40;;;;;;5094416;28;20119;-52
2021/07/14 04:54:43;;;;;;;13.80;6.15;;;743.10;1152.00;;;;;;5094647;28;20024;-51
2021/07/14 04:57:10;;;;;;;14.80;6.85;;;743.10;1152.00;;;;;;5094291;28;20024;-58
2021/07/14 04:59:36;;;;;;;11.27;6.47;;;743.10;1152.00;;;;;;5094620;28;20411;-60
2021/07/14 05:02:06;;;;;;;10.98;6.68;;;743.10;1152.00;;;;;;5094187;28;20027;-54
2021/07/14 05:04:33;;;;;;;10.70;6.45;;;743.10;1152.00;;;;;;5094518;28;20445;-58
2021/07/14 05:06:59;;;;;;;10.35;6.00;;;743.10;1152.00;;;;;;5093965;28;20036;-60
2021/07/14 05:09:25;;;;;;;12.35;6.38;;;743.10;1152.00;;;;;;5094166;28;20486;-60
2021/07/14 05:11:51;;;;;;;21.33;6.55;;;743.20;1152.00;;;;;;5094402;28;20078;-60
2021/07/14 05:14:18;;;;;;;12.85;5.85;;;743.10;1152.00;;;;;;5094084;28;20035;-51
2021/07/14 05:16:44;;;;;;;14.00;6.15;;;743.20;1152.00;;;;;;5094046;28;20028;-59
2021/07/14 05:19:12;;;;;;;11.30;6.50;;;743.20;1152.00;;;;;;5093909;28;20028;-60
2021/07/14 05:21:38;;;;;;;9.57;6.60;;;743.20;1152.00;;;;;;5093965;28;20024;-50
2021/07/14 05:24:04;;;;;;;21.50;7.00;;;743.20;1152.00;;;;;;5093746;28;20040;-52
2021/07/14 05:26:31;;;;;;;13.43;6.40;;;743.20;1152.00;;;;;;5094145;28;20097;-61
2021/07/14 05:28:57;;;;;;;10.98;6.75;;;743.20;1126.40;;;;;;5093819;28;20028;-59
2021/07/14 05:31:23;;;;;;;17.73;6.75;;;743.20;1152.00;;;;;;5093824;28;20020;-58
2021/07/14 05:33:49;;;;;;;11.68;6.65;;;743.20;1152.00;;;;;;5093753;28;20074;-59
2021/07/14 05:36:16;;;;;;;15.02;6.40;;;743.20;1152.00;;;;;;5093989;28;20024;-51
2021/07/14 05:38:42;;;;;;;11.05;6.93;;;743.30;1152.00;;;;;;5094035;28;20028;-56
2021/07/14 05:41:09;;;;;;;26.02;7.13;;;743.30;1152.00;;;;;;5093648;28;20055;-59
2021/07/14 05:43:35;;;;;;;13.23;7.18;;;768.00;1152.00;;;;;;5093940;28;20028;-51
2021/07/14 05:46:01;;;;;;;15.68;6.38;;;768.00;1152.00;;;;;;5093847;28;20040;-59
2021/07/14 05:48:27;;;;;;;9.73;6.15;;;768.00;1152.00;;;;;;5093886;28;20076;-60
2021/07/14 05:50:55;;;;;;;12.43;5.78;;;768.00;1152.00;;;;;;5093634;28;20489;-52
2021/07/14 05:53:21;;;;;;;17.55;6.30;;;768.00;1152.00;;;;;;5093510;28;20126;-59
2021/07/14 05:55:47;;;;;;;8.90;5.90;;;768.00;1152.00;;;;;;5093537;28;20107;-60
2021/07/14 05:58:14;;;;;;;9.05;5.80;;;768.10;1152.00;;;;;;5093842;28;20503;-52
2021/07/14 06:00:41;;;;;;;11.43;6.05;;;768.20;1152.00;;;;;;5093780;28;20380;-59
2021/07/14 06:03:07;;;;;;;13.30;6.63;;;768.20;1152.00;;;;;;5093442;28;20024;-51
2021/07/14 06:05:34;;;;;;;11.57;6.13;;;768.20;1152.00;;;;;;5093376;28;20059;-52
2021/07/14 06:08:00;;;;;;;13.85;6.22;;;768.20;1152.00;;;;;;5093681;28;20027;-60
2021/07/14 06:10:27;;;;;;;8.77;6.15;;;768.20;1152.00;;;;;;5096287;28;20372;-60
2021/07/14 06:12:56;;;;;;;11.48;5.97;;;768.30;1152.00;;;;;;5097763;28;20028;-53
2021/07/14 06:15:23;;;;;;;9.27;6.25;;;768.30;1152.00;;;;;;5097782;28;20024;-51
2021/07/14 06:17:50;;;;;;;10.40;6.18;;;768.50;1152.00;;;;;;5097720;28;20024;-59
2021/07/14 06:20:16;;;;;;;11.05;6.45;;;768.50;1152.00;;;;;;5097378;28;20036;-60
2021/07/14 06:22:42;;;;;;;10.50;6.47;;;768.50;1152.00;;;;;;5097651;28;20103;-52
2021/07/14 06:25:09;;;;;;;11.82;6.10;;;768.60;1152.00;;;;;;5097004;28;20471;-60
2021/07/14 06:27:36;;;;;;;7.15;6.05;;;768.60;1152.00;;;;;;5097317;28;20484;-60
2021/07/14 06:30:07;;;;;;;12.15;6.32;;;768.70;1152.00;;;;;;5097164;28;20470;-60
2021/07/14 06:32:33;;;;;;;10.85;5.97;;;768.70;1152.00;;;;;;5097086;28;20059;-59
2021/07/14 06:35:00;;;;;;;13.23;5.88;;;768.80;1152.00;;;;;;5097405;28;20039;-52
2021/07/14 06:37:26;;;;;;;10.88;5.90;;;768.90;1152.00;;;;;;5096979;28;20030;-52
2021/07/14 06:39:52;;;;;;;8.90;6.35;;;793.60;1177.60;;;;;;5097270;28;20020;-60
2021/07/14 06:42:18;;;;;;;14.07;6.05;;;793.70;1203.20;;;;;;5097207;28;20103;-60
2021/07/14 06:44:44;;;;;;;15.05;6.32;;;793.80;1177.60;;;;;;5096866;28;20437;-55
2021/07/14 06:47:10;;;;;;;8.18;6.07;;;793.80;1177.60;;;;;;5096834;28;20040;-60
2021/07/14 06:49:36;;;;;;;10.23;6.60;;;793.80;1177.60;;;;;;5096858;28;20065;-60
2021/07/14 06:52:02;;;;;;;8.10;6.40;;;793.90;1152.00;;;;;;5097082;28;20028;-60
2021/07/14 06:54:28;;;;;;;11.75;6.90;;;794.00;1152.00;;;;;;5097011;28;20028;-61
2021/07/14 06:56:54;;;;;;;11.13;7.05;;;794.10;1152.00;;;;;;5096946;28;20031;-59
2021/07/14 06:59:20;;;;;;;7.50;6.10;;;794.10;1152.00;;;;;;5096620;28;20024;-60
2021/07/14 07:01:46;;;;;;;10.70;6.65;;;794.20;1152.00;;;;;;5096500;28;20028;-52
2021/07/14 07:04:12;;;;;;;10.55;6.63;;;794.30;1152.00;;;;;;5096478;28;20032;-57
2021/07/14 07:06:38;;;;;;;8.32;6.28;;;794.40;1152.00;;;;;;5096543;28;20032;-52
2021/07/14 07:09:05;;;;;;;13.55;7.10;;;794.50;1152.00;;;;;;5096670;28;20024;-60
2021/07/14 07:11:34;;;;;;;9.57;6.45;;;819.20;1126.40;;;;;;5096384;28;20035;-51
2021/07/14 07:14:02;;;;;;;16.80;7.22;;;819.20;1152.00;;;;;;5096279;28;20024;-55
2021/07/14 07:16:28;;;;;;;9.43;7.00;;;819.20;1100.80;;;;;;5096588;28;20361;-53
2021/07/14 07:18:54;;;;;;;11.57;6.50;;;819.30;1152.00;;;;;;5096259;28;20023;-52
2021/07/14 07:21:20;;;;;;;14.10;7.00;;;819.30;1126.40;;;;;;5094605;28;20035;-53
2021/07/14 07:23:46;;;;;;;9.60;6.80;;;819.40;1126.40;;;;;;5095323;28;20468;-50
2021/07/14 07:26:15;;;;;;;9.73;6.50;;;819.40;1100.80;;;;;;5095424;28;20131;-52
2021/07/14 07:28:42;;;;;;;8.68;6.80;;;819.40;1126.40;;;;;;5094843;28;20027;-52
2021/07/14 07:31:11;;;;;;;10.05;7.07;;;819.40;1126.40;;;;;;5095040;28;20028;-52
2021/07/14 07:33:38;;;;;;;11.10;7.05;;;819.60;1126.40;;;;;;5096035;28;20024;-52
2021/07/14 07:36:05;;;;;;;8.90;7.10;;;819.60;1126.40;;;;;;5095907;28;20077;-52
2021/07/14 07:38:33;;;;;;;8.98;7.20;;;819.70;1126.40;;;;;;5094727;28;20028;-51
2021/07/14 07:40:59;;;;;;;13.10;7.20;;;819.70;1126.40;;;;;;5095402;28;20028;-51
2021/07/14 07:43:29;;;;;;;9.95;7.30;;;819.70;1126.40;;;;;;5095764;28;20021;-56
2021/07/14 07:45:56;;;;;;;12.38;7.32;;;819.70;1126.40;;;;;;5095909;28;20028;-50
2021/07/14 07:48:22;;;;;;;13.60;7.45;;;819.70;1126.40;;;;;;5095955;28;20364;-51
2021/07/14 07:50:49;;;;;;;10.98;7.88;;;819.70;1126.40;;;;;;5095911;28;20032;-57
2021/07/14 07:53:17;;;;;;;13.40;7.03;;;819.80;1126.40;;;;;;5095916;28;20107;-52
2021/07/14 07:55:45;;;;;;;14.80;7.25;;;819.80;1126.40;;;;;;5094395;28;20388;-58
2021/07/14 07:58:11;;;;;;;14.95;7.03;;;819.80;1126.40;;;;;;5094396;28;20435;-59
2021/07/14 08:00:37;;;;;;;16.63;7.40;;;819.90;1126.40;;;;;;5094182;28;20108;-59
2021/07/14 08:03:03;;;;;;;13.63;7.05;;;819.90;1126.40;;;;;;5094267;28;20024;-54
2021/07/14 08:05:29;;;;;;;15.38;7.80;;;819.90;1126.40;;;;;;5094275;28;20039;-52
2021/07/14 08:07:55;;;;;;;14.95;7.53;;;819.90;1126.40;;;;;;5094477;28;20059;-60
2021/07/14 08:10:21;;;;;;;10.88;7.18;;;819.90;1126.40;;;;;;5094189;28;20414;-58
2021/07/14 08:12:47;;;;;;;9.07;7.50;;;819.90;1126.40;;;;;;5093831;28;20472;-59
2021/07/14 08:15:14;;;;;;;16.40;7.82;;;819.90;1126.40;;;;;;5093691;28;20376;-51
2021/07/14 08:17:40;;;;;;;19.75;7.90;;;819.90;1126.40;;;;;;5093632;28;20122;-51
2021/07/14 08:20:09;;;;;;;31.65;8.27;;;820.00;1126.40;;;;;;5091108;28;20012;-51
2021/07/14 08:22:35;;;;;;;19.40;8.13;;;820.00;1126.40;;;;;;5093670;28;20026;-59
2021/07/14 08:25:02;;;;;;;23.15;7.65;;;820.00;1126.40;;;;;;5093294;28;20443;-54
2021/07/14 08:27:28;;;;;;;22.05;8.65;;;820.00;1152.00;;;;;;5093854;28;20344;-59
2021/07/14 08:29:58;;;;;;;15.35;7.18;;;820.00;1152.00;;;;;;5093766;28;20452;-58
2021/07/14 08:32:26;;;;;;;20.85;8.65;;;820.00;1126.40;;;;;;5093420;28;20031;-55
2021/07/14 08:34:51;;;;;;;33.72;8.70;;;820.00;1126.40;;;;;;5093330;28;20058;-59
2021/07/14 08:37:17;;;;;;;31.70;9.40;;;820.10;1152.00;;;;;;5093618;28;20020;-50
2021/07/14 08:39:43;;;;;;;29.70;9.15;;;820.10;1152.00;;;;;;5093550;28;20371;-53
2021/07/14 08:42:14;;;;;;;31.52;9.05;;;820.10;1126.40;;;;;;5094439;28;20024;-53
2021/07/14 08:44:41;;;;;;;27.30;8.85;;;844.80;1152.00;;;;;;5093652;28;20020;-51
2021/07/14 08:47:08;;;;;;;60.25;9.57;;;844.80;1126.40;;;;;;5090606;28;20086;-52
2021/07/14 08:49:36;;;;;;;29.80;8.57;;;844.90;1152.00;;;;;;5091926;28;20019;-58
2021/07/14 08:52:02;;;;;;;22.83;8.30;;;844.90;1152.00;;;;;;5093596;28;20090;-55
2021/07/14 08:54:28;;;;;;;34.63;8.50;;;844.90;1152.00;;;;;;5092329;28;20030;-53
2021/07/14 08:56:54;;;;;;;16.33;7.53;;;844.90;1152.00;;;;;;5093945;28;20058;-52
2021/07/14 08:59:21;;;;;;;18.65;7.82;;;844.90;1126.40;;;;;;5093856;28;20052;-51
2021/07/14 09:01:48;;;;;;;20.33;8.18;;;844.90;1152.00;;;;;;5093823;28;20499;-58
2021/07/14 09:04:14;;;;;;;18.27;7.53;;;844.90;1152.00;;;;;;5093693;28;20032;-60
2021/07/14 09:06:40;;;;;;;26.73;9.18;;;844.80;1152.00;;;;;;5094453;28;20066;-52
2021/07/14 09:09:06;;;;;;;20.15;8.00;;;844.80;1152.00;;;;;;5094062;28;20032;-59
2021/07/14 09:11:51;;;;;;;16.30;8.05;;;844.80;1152.00;;;;;;5094300;28;20036;-59
2021/07/14 09:14:34;;;;;;;25.45;8.45;;;844.80;1152.00;;;;;;5094065;28;20054;-52
2021/07/14 09:17:22;;;;;;;19.30;7.00;;;844.80;1126.40;;;;;;5094308;28;20050;-59
2021/07/14 09:19:53;;;;;;;17.25;7.70;;;844.90;1075.20;;;;;;5093938;28;20024;-59
2021/07/14 09:22:24;;;;;;;18.85;8.00;;;845.00;1075.20;;;;;;5093232;28;20109;-51
2021/07/14 09:24:55;;;;;;;17.08;7.35;;;845.00;1075.20;;;;;;5093724;28;20101;-51
2021/07/14 09:27:27;;;;;;;17.25;7.63;;;845.10;1049.60;;;;;;5093760;28;20085;-59
2021/07/14 09:30:09;;;;;;;19.23;7.40;;;845.10;1075.20;;;;;;5093507;28;20032;-52
2021/07/14 09:32:48;;;;;;;12.38;7.25;;;845.10;1075.20;;;;;;5093326;28;20032;-59
2021/07/14 09:35:25;;;;;;;17.35;6.57;;;845.10;1100.80;;;;;;5093956;28;20024;-59
2021/07/14 09:37:51;;;;;;;10.40;6.75;;;845.20;1049.60;;;;;;5093140;28;20467;-51
2021/07/14 09:40:18;;;;;;;15.88;6.60;;;845.20;1049.60;;;;;;5093878;28;20046;-52
2021/07/14 09:42:52;;;;;;;14.50;6.95;;;845.30;1024.00;;;;;;5093910;28;20024;-59
2021/07/14 09:45:51;;;;;;;12.55;6.60;;;845.30;1024.00;;;;;;5092836;28;20062;-59
2021/07/14 09:48:28;;;;;;;20.85;6.32;;;845.30;1024.00;;;;;;5093900;28;20024;-59
2021/07/14 09:50:57;;;;;;;13.13;6.97;;;845.30;1049.60;;;;;;5093526;28;20020;-60
2021/07/14 09:53:28;;;;;;;15.60;6.75;;;845.30;1049.60;;;;;;5093479;28;20036;-52
2021/07/14 09:56:00;;;;;;;9.60;6.15;;;845.20;1049.60;;;;;;5093494;28;20031;-60
2021/07/14 09:58:32;;;;;;;11.45;5.93;;;845.20;1075.20;;;;;;5093528;28;20089;-58
2021/07/14 10:01:00;;;;;;;11.60;6.15;;;845.10;1075.20;;;;;;5093603;28;20028;-59
2021/07/14 10:03:36;;;;;;;13.10;6.18;;;845.10;1075.20;;;;;;5093071;28;20507;-60
2021/07/14 10:06:04;;;;;;;11.93;5.70;;;845.00;1075.20;;;;;;5092947;28;20046;-60
2021/07/14 10:08:30;;;;;;;12.50;6.18;;;844.90;1075.20;;;;;;5092841;28;20032;-60
2021/07/14 10:11:20;;;;;;;17.10;5.82;;;844.90;1049.60;;;;;;5093202;28;20028;-57
2021/07/14 10:14:05;;;;;;;36.80;7.93;;;844.80;1075.20;;;;;;5093648;28;20016;-60
2021/07/14 10:16:34;;;;;;;39.70;8.20;;;844.80;1100.80;;;;;;5093242;28;20397;-60
2021/07/14 10:19:07;;;;;;;41.58;7.50;;;844.80;1100.80;;;;;;5093172;28;20020;-61
2021/07/14 10:21:43;;;;;;;29.45;7.55;;;844.80;1100.80;;;;;;5093515;28;20032;-58
2021/07/14 10:24:13;;;;;;;31.40;6.70;;;844.80;1100.80;;;;;;5093464;28;20059;-60
2021/07/14 10:26:44;;;;;;;18.40;6.90;;;820.10;1075.20;;;;;;5092500;28;20549;-50
2021/07/14 10:29:10;;;;;;;26.55;7.15;;;820.10;1075.20;;;;;;5092795;28;20025;-59
2021/07/14 10:31:37;;;;;;;18.08;6.55;;;820.10;1075.20;;;;;;5093237;28;20024;-59
2021/07/14 10:34:08;;;;;;;9.38;6.07;;;820.00;1075.20;;;;;;5093509;28;20028;-53
2021/07/14 10:36:38;;;;;;;14.20;6.38;;;820.00;1075.20;;;;;;5093543;28;20028;-60
2021/07/14 10:39:27;;;;;;;15.32;6.10;;;820.00;1075.20;;;;;;5093538;28;20093;-52
2021/07/14 10:41:54;;;;;;;11.48;6.03;;;819.90;1075.20;;;;;;5093452;28;20036;-53
2021/07/14 10:44:21;;;;;;;18.33;6.60;;;819.90;1100.80;;;;;;5093076;28;20066;-60
2021/07/14 10:46:47;;;;;;;13.70;6.40;;;819.90;1100.80;;;;;;5093091;28;20095;-59
2021/07/14 10:49:16;;;;;;;17.08;5.90;;;819.90;1100.80;;;;;;5093070;28;20055;-51
2021/07/14 10:51:42;;;;;;;14.18;6.28;;;819.90;1100.80;;;;;;5093358;28;20028;-59
2021/07/14 10:54:10;;;;;;;22.65;6.50;;;819.90;1100.80;;;;;;5092981;28;20043;-59
2021/07/14 10:56:42;;;;;;;13.93;6.70;;;819.90;1100.80;;;;;;5095857;28;20024;-59
2021/07/14 10:59:10;;;;;;;10.95;6.20;;;819.90;1100.80;;;;;;5096712;28;20487;-59
2021/07/14 11:01:50;;;;;;;9.13;5.63;;;819.90;1100.80;;;;;;5096924;28;20063;-59
2021/07/14 11:04:28;;;;;;;14.32;6.38;;;819.90;1100.80;;;;;;5096619;28;20024;-60
2021/07/14 11:06:54;;;;;;;19.48;6.53;;;819.90;1100.80;;;;;;5096461;28;20533;-60
2021/07/14 11:09:44;;;;;;;17.48;6.60;;;819.90;1100.80;;;;;;5096828;28;20032;-60
2021/07/14 11:12:11;;;;;;;15.77;5.85;;;819.90;1075.20;;;;;;5096521;28;20512;-60
2021/07/14 11:14:50;;;;;;;15.63;6.05;;;820.00;1075.20;;;;;;5096736;28;20115;-51
2021/07/14 11:17:27;;;;;;;15.55;6.65;;;820.10;1075.20;;;;;;5096369;28;20023;-59
2021/07/14 11:19:54;;;;;;;13.23;6.28;;;844.80;1100.80;;;;;;5096353;28;20028;-52
2021/07/14 11:22:40;;;;;;;16.58;5.97;;;844.80;1100.80;;;;;;5095802;28;20028;-59
2021/07/14 11:25:19;;;;;;;17.13;6.65;;;844.90;1100.80;;;;;;5096066;28;20089;-59
2021/07/14 11:27:48;;;;;;;17.40;6.78;;;845.00;1100.80;;;;;;5096176;28;20545;-59
2021/07/14 11:30:13;;;;;;;19.63;7.10;;;845.00;1100.80;;;;;;5095891;28;20081;-60
2021/07/14 11:32:42;;;;;;;12.43;6.15;;;845.10;1100.80;;;;;;5096039;28;20424;-52
2021/07/14 11:35:14;;;;;;;22.23;7.32;;;845.20;1100.80;;;;;;5095285;28;20456;-51
2021/07/14 11:38:06;;;;;;;14.65;7.40;;;845.20;1100.80;;;;;;5095478;28;20385;-56
2021/07/14 11:40:38;;;;;;;20.48;6.85;;;845.20;1100.80;;;;;;5094506;28;20085;-59
2021/07/14 11:43:18;;;;;;;12.15;6.68;;;845.10;1100.80;;;;;;5092878;28;20020;-52
2021/07/14 11:45:50;;;;;;;15.05;6.78;;;845.00;1126.40;;;;;;5092913;28;20047;-59
2021/07/14 11:48:27;;;;;;;19.38;6.05;;;845.00;1126.40;;;;;;5095761;28;20020;-51
2021/07/14 11:51:05;;;;;;;17.83;7.38;;;844.90;1126.40;;;;;;5096024;28;20110;-60
2021/07/14 11:53:40;;;;;;;14.40;7.25;;;844.90;1126.40;;;;;;5095264;28;20609;-60
2021/07/14 11:56:17;;;;;;;13.57;6.93;;;845.00;1126.40;;;;;;5095050;28;20020;-59
2021/07/14 11:58:46;;;;;;;14.57;6.10;;;845.00;1126.40;;;;;;5093535;28;20116;-55
2021/07/14 12:01:17;;;;;;;13.25;6.80;;;845.00;1126.40;;;;;;5094866;28;20016;-59
2021/07/14 12:04:01;;;;;;;12.73;6.83;;;845.00;1126.40;;;;;;5095215;28;20126;-53
2021/07/14 12:06:45;;;;;;;14.00;6.38;;;845.00;1126.40;;;;;;5094112;28;20285;-56
2021/07/14 12:09:14;;;;;;;17.98;6.30;;;845.00;1126.40;;;;;;5091453;28;20024;-51
2021/07/14 12:11:49;;;;;;;14.68;6.40;;;845.00;1126.40;;;;;;5095249;28;20487;-52
2021/07/14 12:14:17;;;;;;;16.30;6.90;;;845.00;1126.40;;;;;;5095469;28;20214;-59
2021/07/14 12:16:54;;;;;;;15.32;7.03;;;845.00;1126.40;;;;;;5095139;28;20036;-55
2021/07/14 12:19:22;;;;;;;15.68;6.22;;;845.00;1126.40;;;;;;5095060;28;20107;-52
2021/07/14 12:21:49;;;;;;;14.15;7.10;;;845.00;1126.40;;;;;;5094371;28;20043;-53
2021/07/14 12:24:31;;;;;;;11.30;7.35;;;845.00;1100.80;;;;;;5094233;28;20515;-59
2021/07/14 12:27:20;;;;;;;10.52;6.35;;;845.00;1100.80;;;;;;5092279;28;20036;-59
2021/07/14 12:30:02;;;;;;;16.20;6.75;;;845.00;1126.40;;;;;;5093888;28;20107;-58
2021/07/14 12:32:58;;;;;;;19.60;8.77;;;845.00;1100.80;;;;;;5095176;28;20051;-59